Time;durP1;ratioP1;P1;durP2;ratioP2;P2;SDS_P1;SDS_P2;PMS_P1;PMS_P2;Temp;Humidity;BMP_temperature;BMP_pressure;BME280_temperature;BME280_humidity;BME280_pressure;Samples;Min_cycle;Max_cycle;Signal;HPM_P1;HPM_P2
2022/09/08 00:11:18;1668330.00;5.56;2964.05;54275.00;0.18;94.58;;;;;23.90;1.00;;;;;;2267089;61;1329;-88
2022/09/08 00:23:55;419906.00;1.40;724.03;62176.00;0.21;108.24;;;;;23.80;1.00;;;;;;1067142;40;3197;-87
2022/09/08 00:36:33;1780123.00;5.93;3182.19;476380.00;1.59;821.17;;;;;23.90;1.00;;;;;;2365855;40;3541;-89
2022/09/08 01:14:47;417169.00;1.39;719.32;0.00;0.00;0.62;;;;;23.30;1.00;;;;;;1172445;40;3191;-87
2022/09/08 01:22:34;1595898.00;5.32;2824.90;64149.00;0.21;111.65;;;;;23.80;1.00;;;;;;2313982;40;3697;-87
2022/09/08 01:27:38;1139684.00;3.80;1981.54;0.00;0.00;0.62;;;;;23.80;1.00;;;;;;1961065;56;3626;-90
2022/09/08 01:32:38;1419221.00;4.73;2492.02;0.00;0.00;0.62;;;;;23.80;1.00;;;;;;2291461;55;3693;-87
2022/09/08 01:37:37;1560006.00;5.20;2756.55;135698.00;0.45;235.15;;;;;23.80;1.00;;;;;;2266969;61;1338;-89
2022/09/08 01:40:05;554784.00;1.85;956.21;8671.00;0.03;15.65;;;;;23.70;1.00;;;;;;2265012;61;1296;-88
2022/09/08 01:45:02;1007702.00;3.36;1746.12;0.00;0.00;0.62;;;;;23.80;1.00;;;;;;2266762;61;1306;-90
2022/09/08 01:50:04;1399917.00;4.67;2456.17;0.00;0.00;0.62;;;;;23.70;1.00;;;;;;2266504;61;1418;-88
2022/09/08 01:52:31;162094.00;0.54;280.65;0.00;0.00;0.62;;;;;23.70;1.00;;;;;;2265072;61;1985;-89
2022/09/08 01:54:58;253145.00;0.84;437.36;0.00;0.00;0.62;;;;;23.60;1.00;;;;;;2264955;61;1552;-91
2022/09/08 01:57:25;162453.00;0.54;281.27;316.00;0.00;1.17;;;;;23.80;1.00;;;;;;2265048;61;1697;-88
2022/09/08 02:02:24;1196138.00;3.99;2083.24;13863.00;0.05;24.64;;;;;23.90;1.00;;;;;;2266922;61;1178;-87
2022/09/08 02:37:45;1917619.00;6.39;3456.52;11548.00;0.04;20.63;;;;;23.70;1.00;;;;;;2270504;61;1376;-90
2022/09/08 02:57:46;1545371.00;5.15;2728.79;0.00;0.00;0.62;;;;;23.50;1.00;;;;;;2092995;55;3609;-87
2022/09/08 03:02:42;1382494.00;4.61;2423.90;46874.00;0.16;81.78;;;;;23.60;1.00;;;;;;828315;40;3414;-86
2022/09/08 03:37:59;1003187.00;3.34;1738.12;0.00;0.00;0.62;;;;;22.70;1.00;;;;;;2280392;40;3484;-89
2022/09/08 03:48:09;1040326.00;3.47;1804.03;67392.00;0.22;117.25;;;;;22.80;1.00;;;;;;2274565;40;3499;-87
2022/09/08 03:50:36;292927.00;0.98;505.76;65360.00;0.22;113.74;;;;;22.70;1.00;;;;;;2269094;61;1211;-88
2022/09/08 03:55:40;1299317.00;4.33;2270.86;67817.00;0.23;117.99;;;;;22.40;1.00;;;;;;2266444;61;1282;-90
2022/09/08 03:58:07;154423.00;0.51;267.43;0.00;0.00;0.62;;;;;22.50;1.00;;;;;;2264982;61;965;-90
2022/09/08 04:10:55;382643.00;1.28;659.97;73239.00;0.24;127.36;;;;;22.60;1.00;;;;;;1909775;40;3204;-88
2022/09/08 04:54:10;1442432.00;4.81;2535.26;0.00;0.00;0.62;;;;;21.80;1.00;;;;;;2267294;61;1941;-91
2022/09/08 05:47:49;1439140.00;4.80;2529.12;0.00;0.00;0.62;;;;;20.60;4.20;;;;;;2270842;61;992;-90
2022/09/08 05:59:11;26660.00;0.09;46.80;0.00;0.00;0.62;;;;;20.10;7.20;;;;;;2502352;40;3618;31
2022/09/08 06:07:20;880726.00;2.94;1522.29;0.00;0.00;0.62;;;;;19.80;9.60;;;;;;2500287;40;3573;31
2022/09/08 06:09:47;1369604.00;4.57;2400.07;0.00;0.00;0.62;;;;;20.20;7.80;;;;;;2255906;61;1252;-91
2022/09/08 06:12:15;191082.00;0.64;330.57;0.00;0.00;0.62;;;;;20.30;7.00;;;;;;2257094;61;1600;-89
2022/09/08 06:14:42;30273.00;0.10;53.06;0.00;0.00;0.62;;;;;20.20;7.50;;;;;;2257051;61;2005;-88
2022/09/08 06:17:09;161048.00;0.54;278.84;0.00;0.00;0.62;;;;;20.60;6.60;;;;;;2257151;61;1693;-87
2022/09/08 06:27:31;1864129.00;6.21;3348.97;28523.00;0.10;50.03;;;;;21.50;3.40;;;;;;2274667;61;1000;-91
2022/09/08 07:00:47;1647470.00;5.49;2923.81;4611.00;0.02;8.61;;;;;21.80;1.10;;;;;;2274612;61;1360;-92
2022/09/08 07:31:22;1167751.00;3.89;2032.02;0.00;0.00;0.62;;;;;19.50;7.00;;;;;;2270461;61;1349;-89
2022/09/08 07:36:30;584979.00;1.95;1008.29;0.00;0.00;0.62;;;;;19.80;6.00;;;;;;2272611;40;3491;-88
2022/09/08 07:41:34;900274.00;3.00;1556.60;0.00;0.00;0.62;;;;;20.20;4.10;;;;;;2266277;61;1286;-90
2022/09/08 07:44:03;325678.00;1.09;562.06;0.00;0.00;0.62;;;;;20.40;5.30;;;;;;2268165;40;3584;-88
2022/09/08 07:46:54;962910.00;3.21;1666.89;0.00;0.00;0.62;;;;;20.80;4.00;;;;;;2269980;61;1255;-90
2022/09/08 08:04:43;592307.00;1.97;1020.94;69342.00;0.23;120.62;;;;;25.70;1.00;;;;;;1852215;40;3236;-88
2022/09/08 08:07:17;366984.00;1.22;633.05;97567.00;0.33;169.37;;;;;26.50;1.00;;;;;;2280332;55;3786;-89
2022/09/08 08:09:54;245455.00;0.82;424.13;47287.00;0.16;82.49;;;;;26.20;1.00;;;;;;2272018;61;1378;-89
2022/09/08 08:12:30;58371.00;0.19;101.66;0.00;0.00;0.62;;;;;26.30;1.00;;;;;;2277550;55;3832;-88
2022/09/08 08:15:02;328221.00;1.09;566.43;64664.00;0.22;112.54;;;;;26.30;1.00;;;;;;2268895;61;1987;-89
2022/09/08 08:17:36;643734.00;2.15;1109.80;43899.00;0.15;76.63;;;;;27.00;1.00;;;;;;2304917;56;3770;-89
2022/09/08 08:23:05;873798.00;2.91;1510.15;0.00;0.00;0.62;;;;;27.00;1.00;;;;;;2266345;61;1416;-87
2022/09/08 08:25:43;389604.00;1.30;671.93;61761.00;0.21;107.52;;;;;27.20;1.00;;;;;;2267276;55;3754;-87
2022/09/08 08:28:16;693670.00;2.31;1196.26;69791.00;0.23;121.40;;;;;27.00;1.00;;;;;;2276069;40;3636;-87
2022/09/08 08:35:51;807782.00;2.69;1394.70;0.00;0.00;0.62;;;;;24.90;1.00;;;;;;2271264;61;1261;-88
2022/09/08 08:43:58;875584.00;2.92;1513.28;0.00;0.00;0.62;;;;;24.70;1.00;;;;;;2275212;55;3673;-87
2022/09/08 08:51:57;1417193.00;4.72;2488.25;0.00;0.00;0.62;;;;;24.30;1.00;;;;;;2266876;61;1428;-88
2022/09/08 09:00:03;1233798.00;4.11;2151.45;0.00;0.00;0.62;;;;;24.00;1.00;;;;;;2274119;40;3493;-86
2022/09/08 09:02:53;267803.00;0.89;462.57;0.00;0.00;0.62;;;;;24.00;1.00;;;;;;2314033;56;3754;-86
2022/09/08 09:13:37;1515029.00;5.05;2671.43;70075.00;0.23;121.89;;;;;24.00;1.00;;;;;;2266995;61;1305;-88
2022/09/08 09:23:59;1671839.00;5.57;2970.84;0.00;0.00;0.62;;;;;23.80;1.00;;;;;;2286827;56;3606;-90
2022/09/08 09:51:56;945352.00;3.15;1635.92;0.00;0.00;0.62;;;;;23.10;1.00;;;;;;2286053;40;3545;-88
2022/09/08 10:05:09;1132041.00;3.77;1967.82;63548.00;0.21;110.61;;;;;24.00;1.00;;;;;;2267185;61;1119;-91
2022/09/08 10:08:35;259788.00;0.87;448.78;64106.00;0.21;111.57;;;;;24.10;1.00;;;;;;2265106;61;1547;-90
2022/09/08 10:11:26;164196.00;0.55;284.27;0.00;0.00;0.62;;;;;24.30;1.00;;;;;;2262735;61;1249;-88
2022/09/08 10:14:25;47123.00;0.16;82.21;0.00;0.00;0.62;;;;;24.10;1.00;;;;;;2260229;61;2012;-86
2022/09/08 10:17:27;46008.00;0.15;80.28;0.00;0.00;0.62;;;;;24.40;1.00;;;;;;2264496;61;1397;-87
2022/09/08 10:20:27;237425.00;0.79;410.32;0.00;0.00;0.62;;;;;24.40;1.00;;;;;;2264094;61;1292;-87
2022/09/08 10:23:27;190263.00;0.63;329.16;0.00;0.00;0.62;;;;;24.70;1.00;;;;;;2261164;61;1159;-87
2022/09/08 10:26:22;91302.00;0.30;158.56;0.00;0.00;0.62;;;;;25.00;1.00;;;;;;2264387;61;1099;-87
2022/09/08 10:29:32;519.00;0.00;1.52;0.00;0.00;0.62;;;;;25.00;1.00;;;;;;2263931;61;1131;-86
2022/09/08 10:32:32;46196.00;0.15;80.61;0.00;0.00;0.62;;;;;24.70;1.00;;;;;;2264475;61;1024;-87
2022/09/08 10:35:25;152133.00;0.51;263.48;0.00;0.00;0.62;;;;;24.10;1.00;;;;;;2263965;61;1944;-87
2022/09/08 10:38:17;355975.00;1.19;614.13;0.00;0.00;0.62;;;;;23.90;1.00;;;;;;2264410;61;1100;-87
2022/09/08 10:41:04;343523.00;1.15;592.73;0.00;0.00;0.62;;;;;23.80;1.00;;;;;;2264265;61;1346;-87
2022/09/08 10:44:04;155335.00;0.52;269.00;0.00;0.00;0.62;;;;;24.30;1.00;;;;;;2264375;61;1120;-87
2022/09/08 10:46:52;0.00;0.00;0.62;0.00;0.00;0.62;;;;;24.70;1.00;;;;;;2264243;61;1545;-87
2022/09/08 10:50:13;64942.00;0.22;113.02;0.00;0.00;0.62;;;;;24.90;1.00;;;;;;2264375;61;1442;-86
2022/09/08 10:52:52;42598.00;0.14;74.38;0.00;0.00;0.62;;;;;25.30;1.00;;;;;;2264333;61;1110;-86
2022/09/08 10:56:02;0.00;0.00;0.62;0.00;0.00;0.62;;;;;24.80;1.00;;;;;;2264391;61;1913;-87
2022/09/08 10:59:04;10600.00;0.04;18.99;0.00;0.00;0.62;;;;;24.90;1.00;;;;;;2264311;61;1174;-87
2022/09/08 11:01:54;115670.00;0.39;200.61;0.00;0.00;0.62;;;;;24.80;1.00;;;;;;2264310;61;1889;-87
2022/09/08 11:05:07;0.00;0.00;0.62;0.00;0.00;0.62;;;;;24.70;1.00;;;;;;2264366;61;1098;-87
2022/09/08 11:07:49;0.00;0.00;0.62;0.00;0.00;0.62;;;;;24.90;1.00;;;;;;2264311;61;1086;-87
2022/09/08 11:10:31;42620.00;0.14;74.42;0.00;0.00;0.62;;;;;24.90;1.00;;;;;;2264453;61;1470;-86
2022/09/08 11:13:24;79680.00;0.27;138.48;13560.00;0.05;24.12;;;;;24.80;1.00;;;;;;2264411;61;976;-88
2022/09/08 11:16:19;146347.00;0.49;253.51;10524.00;0.04;18.86;;;;;24.90;1.00;;;;;;2264307;61;1935;-85
2022/09/08 11:18:59;0.00;0.00;0.62;0.00;0.00;0.62;;;;;24.90;1.00;;;;;;2264198;61;1088;-86
2022/09/08 11:21:29;137447.00;0.46;238.17;0.00;0.00;0.62;;;;;24.70;1.00;;;;;;2263986;61;1439;-86
2022/09/08 11:24:11;44459.00;0.15;77.60;0.00;0.00;0.62;;;;;24.50;1.00;;;;;;2264257;61;1103;-87
2022/09/08 11:26:55;49415.00;0.16;86.17;0.00;0.00;0.62;;;;;24.60;1.00;;;;;;2264249;61;973;-85
2022/09/08 11:29:34;141322.00;0.47;244.85;0.00;0.00;0.62;;;;;24.80;1.00;;;;;;2264254;61;1269;-86
2022/09/08 11:32:16;80071.00;0.27;139.16;0.00;0.00;0.62;;;;;24.70;1.00;;;;;;2264280;61;1046;-86
2022/09/08 11:35:03;41151.00;0.14;71.88;0.00;0.00;0.62;;;;;24.70;1.00;;;;;;2264134;61;1919;-86
2022/09/08 11:38:05;47020.00;0.16;82.03;0.00;0.00;0.62;;;;;24.90;1.00;;;;;;2264275;61;960;-87
2022/09/08 11:41:10;36439.00;0.12;63.73;0.00;0.00;0.62;;;;;25.30;1.00;;;;;;2260684;61;1562;-86
2022/09/08 11:43:55;63034.00;0.21;109.72;0.00;0.00;0.62;;;;;25.30;1.00;;;;;;2264178;61;1319;-85
2022/09/08 11:46:38;0.00;0.00;0.62;0.00;0.00;0.62;;;;;25.50;1.00;;;;;;2264178;61;1168;-86
2022/09/08 11:49:37;0.00;0.00;0.62;0.00;0.00;0.62;;;;;25.80;1.00;;;;;;2264211;61;1112;-86
2022/09/08 11:52:28;0.00;0.00;0.62;0.00;0.00;0.62;;;;;25.60;1.00;;;;;;2264214;61;1082;-89
2022/09/08 11:55:38;0.00;0.00;0.62;0.00;0.00;0.62;;;;;25.40;1.00;;;;;;2264077;61;1918;-85
2022/09/08 11:58:21;28613.00;0.10;50.18;0.00;0.00;0.62;;;;;25.60;1.00;;;;;;2264090;61;1079;-86
2022/09/08 12:01:05;71328.00;0.24;124.06;0.00;0.00;0.62;;;;;25.70;1.00;;;;;;2264122;61;1643;-86
2022/09/08 12:03:47;0.00;0.00;0.62;0.00;0.00;0.62;;;;;25.40;1.00;;;;;;2264149;61;1285;-87
2022/09/08 12:06:42;386522.00;1.29;666.64;140517.00;0.47;243.46;;;;;25.20;1.00;;;;;;2264281;61;988;-87
2022/09/08 12:09:44;121076.00;0.40;209.94;0.00;0.00;0.62;;;;;25.20;1.00;;;;;;2264088;61;1562;-87
2022/09/08 12:14:51;90216.00;0.30;156.68;0.00;0.00;0.62;;;;;25.30;1.00;;;;;;2265626;61;1979;-88
2022/09/08 12:17:35;13645.00;0.05;24.26;0.00;0.00;0.62;;;;;25.30;1.00;;;;;;2276137;55;3773;-86
2022/09/08 12:20:27;520373.00;1.73;896.91;0.00;0.00;0.62;;;;;25.70;1.00;;;;;;2276188;55;3820;-86
2022/09/08 12:23:16;68957.00;0.23;119.96;0.00;0.00;0.62;;;;;26.00;1.00;;;;;;2273783;55;3747;-85
2022/09/08 12:26:08;0.00;0.00;0.62;0.00;0.00;0.62;;;;;25.80;1.00;;;;;;2274230;55;3756;-85
2022/09/08 12:29:11;632832.00;2.11;1090.94;0.00;0.00;0.62;;;;;25.90;1.00;;;;;;2308103;56;3700;-85
2022/09/08 12:31:54;130364.00;0.43;225.96;0.00;0.00;0.62;;;;;26.00;1.00;;;;;;2268085;61;1009;-86
2022/09/08 12:34:38;430994.00;1.44;743.09;104990.00;0.35;182.18;;;;;26.00;1.00;;;;;;2268074;61;1985;-86
2022/09/08 12:37:14;118916.00;0.40;206.21;0.00;0.00;0.62;;;;;26.50;1.00;;;;;;2268234;61;1087;-86
2022/09/08 12:40:19;0.00;0.00;0.62;0.00;0.00;0.62;;;;;26.50;1.00;;;;;;2267992;61;1372;-85
2022/09/08 12:43:03;104609.00;0.35;181.53;0.00;0.00;0.62;;;;;26.30;1.00;;;;;;2268078;61;1208;-85
2022/09/08 12:48:15;308493.00;1.03;532.52;0.00;0.00;0.62;;;;;26.20;1.00;;;;;;2265879;61;1180;-87
2022/09/08 12:50:54;111426.00;0.37;193.29;0.00;0.00;0.62;;;;;26.10;1.00;;;;;;2264092;61;1309;-85
2022/09/08 12:53:54;118411.00;0.39;205.34;42500.00;0.14;74.21;;;;;26.40;1.00;;;;;;2264075;61;1093;-86
2022/09/08 12:56:34;0.00;0.00;0.62;0.00;0.00;0.62;;;;;26.30;1.00;;;;;;2264058;61;1991;-86
2022/09/08 12:59:19;27876.00;0.09;48.91;0.00;0.00;0.62;;;;;26.00;1.00;;;;;;2263918;61;1097;-86
2022/09/08 13:01:56;0.00;0.00;0.62;0.00;0.00;0.62;;;;;25.80;1.00;;;;;;2263965;61;1060;-85
2022/09/08 13:04:38;199519.00;0.67;345.10;0.00;0.00;0.62;;;;;25.60;1.00;;;;;;2264138;61;822;-85
2022/09/08 13:07:18;159545.00;0.53;276.26;0.00;0.00;0.62;;;;;25.60;1.00;;;;;;2264677;61;1087;-85
2022/09/08 13:10:03;149425.00;0.50;258.82;0.00;0.00;0.62;;;;;25.60;1.00;;;;;;2264708;61;1452;-85
2022/09/08 13:13:01;161939.00;0.54;280.38;0.00;0.00;0.62;;;;;25.90;1.00;;;;;;2264735;61;951;-87
2022/09/08 13:15:33;45376.00;0.15;79.19;0.00;0.00;0.62;;;;;26.20;1.00;;;;;;2264545;61;1994;-85
2022/09/08 13:18:14;242251.00;0.81;418.62;12235.00;0.04;21.82;;;;;26.40;1.00;;;;;;2264681;61;1000;-85
2022/09/08 13:20:43;144715.00;0.48;250.70;0.00;0.00;0.62;;;;;26.20;1.00;;;;;;2264650;61;1463;-86
2022/09/08 13:23:34;94653.00;0.32;164.34;0.00;0.00;0.62;;;;;26.30;1.00;;;;;;2264658;61;1129;-85
2022/09/08 13:26:19;160747.00;0.54;278.33;0.00;0.00;0.62;;;;;26.40;1.00;;;;;;2264562;61;1451;-86
2022/09/08 13:29:03;128845.00;0.43;223.34;0.00;0.00;0.62;;;;;26.20;1.00;;;;;;2264607;61;1077;-86
2022/09/08 13:31:42;17058.00;0.06;30.18;0.00;0.00;0.62;;;;;26.10;1.00;;;;;;2264550;61;1481;-85
2022/09/08 13:34:36;176950.00;0.59;306.24;0.00;0.00;0.62;;;;;26.10;1.00;;;;;;2264635;61;946;-86
2022/09/08 13:37:18;38422.00;0.13;67.16;0.00;0.00;0.62;;;;;26.00;1.00;;;;;;2264535;61;1171;-86
2022/09/08 13:40:06;163238.00;0.54;282.62;0.00;0.00;0.62;;;;;26.20;1.00;;;;;;2264592;61;1342;-85
2022/09/08 13:43:04;197687.00;0.66;341.94;0.00;0.00;0.62;;;;;26.40;1.00;;;;;;2264633;61;1055;-86
2022/09/08 13:45:45;163325.00;0.54;282.77;0.00;0.00;0.62;;;;;26.70;1.00;;;;;;2264520;61;964;-86
2022/09/08 13:48:27;175460.00;0.58;303.67;0.00;0.00;0.62;;;;;26.70;1.00;;;;;;2264464;61;1505;-86
2022/09/08 13:51:44;166104.00;0.55;287.56;0.00;0.00;0.62;;;;;27.10;1.00;;;;;;2264556;61;1366;-85
2022/09/08 13:54:48;18609.00;0.06;32.86;0.00;0.00;0.62;;;;;27.10;1.00;;;;;;2264440;61;1554;-86
2022/09/08 13:57:49;28026.00;0.09;49.17;0.00;0.00;0.62;;;;;27.30;1.00;;;;;;2264201;61;1420;-85
2022/09/08 14:00:19;213819.00;0.71;369.71;62094.00;0.21;108.10;;;;;27.40;1.00;;;;;;2264337;61;1343;-85
2022/09/08 14:02:57;339534.00;1.13;585.87;83978.00;0.28;145.91;;;;;27.20;1.00;;;;;;2264355;61;1447;-85
2022/09/08 14:05:34;105298.00;0.35;182.72;0.00;0.00;0.62;;;;;26.90;1.00;;;;;;2264494;61;1013;-85
2022/09/08 14:08:15;228846.00;0.76;395.56;0.00;0.00;0.62;;;;;26.70;1.00;;;;;;2264466;61;1604;-84
2022/09/08 14:11:07;300813.00;1.00;519.32;0.00;0.00;0.62;;;;;26.70;1.00;;;;;;2264372;61;1397;-84
2022/09/08 14:13:36;331126.00;1.10;571.42;58109.00;0.19;101.21;;;;;26.80;1.00;;;;;;2264445;61;986;-85
2022/09/08 14:19:44;508731.00;1.70;876.86;68694.00;0.23;119.50;;;;;26.80;1.00;;;;;;2289943;60;1270;-86
2022/09/08 14:22:20;388133.00;1.29;669.41;59667.00;0.20;103.90;;;;;26.90;1.00;;;;;;2283698;60;2295;-85
2022/09/08 14:24:58;218364.00;0.73;377.53;63998.00;0.21;111.39;;;;;26.90;1.00;;;;;;2283821;60;1116;-84
2022/09/08 14:27:57;471056.00;1.57;812.01;53438.00;0.18;93.13;;;;;26.70;1.00;;;;;;2283784;60;990;-85
2022/09/08 14:30:27;101477.00;0.34;176.12;0.00;0.00;0.62;;;;;26.90;1.00;;;;;;2283819;60;1435;-84
2022/09/08 14:33:24;367255.00;1.22;633.52;83677.00;0.28;145.39;;;;;26.40;1.00;;;;;;2283824;60;1041;-89
2022/09/08 14:35:57;116945.00;0.39;202.81;0.00;0.00;0.62;;;;;26.20;1.00;;;;;;2283732;60;1096;-85
2022/09/08 14:38:57;59369.00;0.20;103.39;0.00;0.00;0.62;;;;;26.00;1.00;;;;;;2283789;60;1928;-84
2022/09/08 14:41:42;64641.00;0.22;112.50;0.00;0.00;0.62;;;;;26.30;1.00;;;;;;2281954;61;1398;-84
2022/09/08 14:44:47;91514.00;0.31;158.92;0.00;0.00;0.62;;;;;26.30;1.00;;;;;;2283744;60;1049;-85
2022/09/08 14:47:26;65276.00;0.22;113.60;0.00;0.00;0.62;;;;;26.30;1.00;;;;;;2283743;60;1345;-86
2022/09/08 14:50:19;52414.00;0.17;91.36;0.00;0.00;0.62;;;;;25.90;1.00;;;;;;2283707;61;1341;-85
2022/09/08 14:53:23;9714.00;0.03;17.45;0.00;0.00;0.62;;;;;25.90;1.00;;;;;;2283666;60;1040;-86
2022/09/08 14:56:01;155570.00;0.52;269.41;45839.00;0.15;79.99;;;;;26.20;1.00;;;;;;2280354;60;1093;-86
2022/09/08 14:58:43;429221.00;1.43;740.05;44601.00;0.15;77.85;;;;;26.30;1.00;;;;;;2283610;60;2513;-85
2022/09/08 15:01:29;33131.00;0.11;58.00;0.00;0.00;0.62;;;;;26.00;1.00;;;;;;2283639;60;1396;-86
2022/09/08 15:04:01;0.00;0.00;0.62;0.00;0.00;0.62;;;;;25.80;1.00;;;;;;2283660;60;1156;-85
2022/09/08 15:06:52;32976.00;0.11;57.73;0.00;0.00;0.62;;;;;26.00;1.00;;;;;;2283577;60;2118;-86
2022/09/08 15:09:58;73730.00;0.25;128.21;0.00;0.00;0.62;;;;;26.20;1.00;;;;;;2303218;39;3560;-86
2022/09/08 15:15:03;300318.00;1.00;518.47;0.00;0.00;0.62;;;;;26.80;1.00;;;;;;2276565;55;3678;-85
2022/09/08 15:17:36;177847.00;0.59;307.78;0.00;0.00;0.62;;;;;26.80;1.00;;;;;;2279481;60;1919;-85
2022/09/08 15:20:10;76155.00;0.25;132.40;0.00;0.00;0.62;;;;;26.50;1.00;;;;;;2279504;60;1652;-85
2022/09/08 15:22:50;76104.00;0.25;132.31;0.00;0.00;0.62;;;;;26.30;1.00;;;;;;2279470;60;1256;-85
2022/09/08 15:27:52;353390.00;1.18;609.69;0.00;0.00;0.62;;;;;26.10;1.00;;;;;;2273220;61;1368;-85
2022/09/08 15:30:28;340298.00;1.13;587.19;36304.00;0.12;63.49;;;;;25.90;1.00;;;;;;2274938;55;3893;-85
2022/09/08 15:35:46;494856.00;1.65;852.97;0.00;0.00;0.62;;;;;25.90;1.00;;;;;;2265740;61;1395;-85
2022/09/08 15:38:33;95955.00;0.32;166.59;0.00;0.00;0.62;;;;;26.10;1.00;;;;;;2264484;61;2010;-85
2022/09/08 15:41:21;49687.00;0.17;86.64;0.00;0.00;0.62;;;;;26.00;1.00;;;;;;2260811;61;1303;-85
2022/09/08 15:44:35;39818.00;0.13;69.57;0.00;0.00;0.62;;;;;26.00;1.00;;;;;;2264479;61;1087;-85
2022/09/08 15:47:27;34454.00;0.11;60.29;0.00;0.00;0.62;;;;;25.80;1.00;;;;;;2264567;61;1452;-85
2022/09/08 15:50:08;30862.00;0.10;54.08;0.00;0.00;0.62;;;;;25.80;1.00;;;;;;2264575;61;1505;-85
2022/09/08 15:53:10;0.00;0.00;0.62;0.00;0.00;0.62;;;;;25.70;1.00;;;;;;2264587;61;1104;-85
2022/09/08 15:55:52;0.00;0.00;0.62;0.00;0.00;0.62;;;;;25.70;1.00;;;;;;2264589;61;983;-85
2022/09/08 15:58:28;20835.00;0.07;36.72;0.00;0.00;0.62;;;;;25.90;1.00;;;;;;2264544;61;1919;-85
2022/09/08 16:01:03;126396.00;0.42;219.11;0.00;0.00;0.62;;;;;26.00;1.00;;;;;;2264449;61;1422;-85
2022/09/08 16:03:54;0.00;0.00;0.62;0.00;0.00;0.62;;;;;25.90;1.00;;;;;;2264590;61;1093;-86
2022/09/08 16:06:37;37129.00;0.12;64.92;0.00;0.00;0.62;;;;;25.70;1.00;;;;;;2263958;61;1134;-85
2022/09/08 16:09:07;35625.00;0.12;62.32;0.00;0.00;0.62;;;;;25.50;1.00;;;;;;2264531;61;1033;-84
2022/09/08 16:11:57;87831.00;0.29;152.56;0.00;0.00;0.62;;;;;25.50;1.00;;;;;;2264380;61;1242;-86
2022/09/08 16:14:49;60880.00;0.20;106.00;0.00;0.00;0.62;;;;;25.60;1.00;;;;;;2264560;61;885;-85
2022/09/08 16:17:18;190985.00;0.64;330.40;0.00;0.00;0.62;;;;;25.50;1.00;;;;;;2264515;61;1402;-86
2022/09/08 16:20:12;0.00;0.00;0.62;0.00;0.00;0.62;;;;;25.80;1.00;;;;;;2264445;61;1997;-86
2022/09/08 16:22:46;60949.00;0.20;106.12;0.00;0.00;0.62;;;;;25.60;1.00;;;;;;2264527;61;1007;-87
2022/09/08 16:25:14;0.00;0.00;0.62;0.00;0.00;0.62;;;;;25.60;1.00;;;;;;2264423;61;1133;-84
2022/09/08 16:27:58;57001.00;0.19;99.29;0.00;0.00;0.62;;;;;25.70;1.00;;;;;;2264467;61;1138;-84
2022/09/08 16:30:39;0.00;0.00;0.62;0.00;0.00;0.62;;;;;25.70;1.00;;;;;;2264387;61;1377;-84
2022/09/08 16:33:26;18241.00;0.06;32.22;0.00;0.00;0.62;;;;;25.40;1.00;;;;;;2264398;61;1052;-85
2022/09/08 16:36:20;0.00;0.00;0.62;0.00;0.00;0.62;;;;;25.30;1.00;;;;;;2268358;61;1131;-85
2022/09/08 16:38:52;1787.00;0.01;3.72;0.00;0.00;0.62;;;;;25.20;1.00;;;;;;2265996;61;2022;-85
2022/09/08 16:41:42;36255.00;0.12;63.41;0.00;0.00;0.62;;;;;25.20;1.00;;;;;;2268109;61;1532;-84
2022/09/08 16:44:22;0.00;0.00;0.62;0.00;0.00;0.62;;;;;25.40;1.00;;;;;;2268432;61;1036;-84
2022/09/08 16:46:50;8462.00;0.03;15.28;0.00;0.00;0.62;;;;;25.60;1.00;;;;;;2268344;61;1268;-84
2022/09/08 16:49:29;84572.00;0.28;146.93;0.00;0.00;0.62;;;;;25.60;1.00;;;;;;2268206;61;1424;-84
2022/09/08 16:52:19;34115.00;0.11;59.71;0.00;0.00;0.62;;;;;25.20;1.00;;;;;;2268286;61;1000;-85
2022/09/08 16:54:57;117540.00;0.39;203.84;7299.00;0.02;13.27;;;;;25.10;1.00;;;;;;2268396;61;953;-85
2022/09/08 16:57:36;282512.00;0.94;487.86;0.00;0.00;0.62;;;;;25.30;1.00;;;;;;2268217;61;1028;-82
2022/09/08 17:00:14;0.00;0.00;0.62;0.00;0.00;0.62;;;;;25.30;1.00;;;;;;2268358;61;1428;-85
2022/09/08 17:02:51;142295.00;0.47;246.53;22206.00;0.07;39.09;;;;;25.20;1.00;;;;;;2268328;61;1116;-84
2022/09/08 17:05:38;129382.00;0.43;224.26;0.00;0.00;0.62;;;;;24.70;1.00;;;;;;2268329;61;1036;-85
2022/09/08 17:08:17;59314.00;0.20;103.29;0.00;0.00;0.62;;;;;24.80;1.00;;;;;;2267970;61;1205;-85
2022/09/08 17:10:52;70216.00;0.23;122.13;0.00;0.00;0.62;;;;;24.80;1.00;;;;;;2268292;61;1358;-84
2022/09/08 17:13:23;68657.00;0.23;119.44;0.00;0.00;0.62;;;;;25.00;1.00;;;;;;2268362;61;1190;-84
2022/09/08 17:16:37;86250.00;0.29;149.83;0.00;0.00;0.62;;;;;24.90;1.00;;;;;;2268300;61;1102;-84
2022/09/08 17:19:10;20525.00;0.07;36.18;0.00;0.00;0.62;;;;;24.90;1.00;;;;;;2264228;61;1919;-84
2022/09/08 17:22:07;67145.00;0.22;116.83;0.00;0.00;0.62;;;;;24.80;1.00;;;;;;2267934;61;1092;-84
2022/09/08 17:24:41;181809.00;0.61;314.60;38495.00;0.13;67.28;;;;;24.80;1.00;;;;;;2268211;61;1027;-84
2022/09/08 17:27:43;195143.00;0.65;337.56;51123.00;0.17;89.13;;;;;24.90;1.00;;;;;;2267350;61;1055;-84
2022/09/08 17:30:14;17346.00;0.06;30.67;0.00;0.00;0.62;;;;;25.30;1.00;;;;;;2264187;61;1424;-85
2022/09/08 17:33:17;47050.00;0.16;82.08;0.00;0.00;0.62;;;;;25.40;1.00;;;;;;2264216;61;1102;-84
2022/09/08 17:36:09;113017.00;0.38;196.04;6318.00;0.02;11.57;;;;;25.50;1.00;;;;;;2260637;61;1005;-84
2022/09/08 17:38:39;308805.00;1.03;533.06;52286.00;0.17;91.14;;;;;25.50;1.00;;;;;;2264203;61;1936;-84
2022/09/08 17:41:20;38991.00;0.13;68.14;0.00;0.00;0.62;;;;;25.40;1.00;;;;;;2264241;61;1255;-85
2022/09/08 17:43:59;100908.00;0.34;175.14;9347.00;0.03;16.82;;;;;25.50;1.00;;;;;;2264290;61;1000;-83
2022/09/08 17:46:39;0.00;0.00;0.62;0.00;0.00;0.62;;;;;25.30;1.00;;;;;;2262707;61;1111;-83
2022/09/08 17:49:14;119557.00;0.40;207.32;32965.00;0.11;57.71;;;;;25.30;1.00;;;;;;2260145;61;1068;-83
2022/09/08 17:51:52;540408.00;1.80;931.43;178259.00;0.59;308.49;;;;;25.20;1.00;;;;;;2260141;61;1143;-84
2022/09/08 17:54:38;106195.00;0.35;184.26;40608.00;0.14;70.94;;;;;25.10;1.00;;;;;;2260162;61;1090;-84
2022/09/08 17:57:22;17971.00;0.06;31.76;0.00;0.00;0.62;;;;;24.90;1.00;;;;;;2262711;61;1083;-83
2022/09/08 18:00:11;88604.00;0.30;153.90;0.00;0.00;0.62;;;;;24.60;1.00;;;;;;2264053;61;1940;-83
2022/09/08 18:03:20;0.00;0.00;0.62;0.00;0.00;0.62;;;;;24.50;1.00;;;;;;2264089;61;1131;-83
2022/09/08 18:05:51;218189.00;0.73;377.23;37980.00;0.13;66.39;;;;;24.40;1.00;;;;;;2263998;61;1082;-84
2022/09/08 18:08:34;65954.00;0.22;114.77;0.00;0.00;0.62;;;;;24.30;1.00;;;;;;2260229;61;1012;-84
2022/09/08 18:11:12;0.00;0.00;0.62;0.00;0.00;0.62;;;;;24.20;1.00;;;;;;2260080;61;1279;-84
2022/09/08 18:13:43;55472.00;0.18;96.65;0.00;0.00;0.62;;;;;24.20;1.00;;;;;;2260139;61;1004;-84
2022/09/08 18:16:18;32324.00;0.11;56.61;0.00;0.00;0.62;;;;;24.10;1.00;;;;;;2260662;61;1129;-83
2022/09/08 18:18:49;76175.00;0.25;132.43;0.00;0.00;0.62;;;;;23.80;1.00;;;;;;2264029;61;1915;-83
2022/09/08 18:21:34;0.00;0.00;0.62;0.00;0.00;0.62;;;;;23.60;1.00;;;;;;2264066;61;1482;-83
2022/09/08 18:24:13;16763.00;0.06;29.66;0.00;0.00;0.62;;;;;23.50;1.00;;;;;;2264090;61;946;-83
2022/09/08 18:26:53;266803.00;0.89;460.85;15714.00;0.05;27.85;;;;;23.70;1.00;;;;;;2262952;61;1091;-83
2022/09/08 18:29:30;53403.00;0.18;93.07;0.00;0.00;0.62;;;;;23.80;1.00;;;;;;2260044;61;1441;-83
2022/09/08 18:32:09;14865.00;0.05;26.38;0.00;0.00;0.62;;;;;23.70;1.00;;;;;;2260070;61;1138;-85
2022/09/08 18:34:41;26484.00;0.09;46.50;0.00;0.00;0.62;;;;;23.70;1.00;;;;;;2262681;61;1691;-84
2022/09/08 18:37:14;26646.00;0.09;46.78;0.00;0.00;0.62;;;;;23.70;1.00;;;;;;2265717;61;1110;-85
2022/09/08 18:39:44;50892.00;0.17;88.73;0.00;0.00;0.62;;;;;23.70;1.00;;;;;;2268064;61;1910;-85
2022/09/08 18:42:33;184824.00;0.62;319.80;19235.00;0.06;33.95;;;;;23.80;1.00;;;;;;2268044;61;1116;-86
2022/09/08 18:45:51;137815.00;0.46;238.80;0.00;0.00;0.62;;;;;23.80;1.00;;;;;;2268057;61;1142;-85
2022/09/08 18:48:22;39364.00;0.13;68.79;0.00;0.00;0.62;;;;;23.70;1.00;;;;;;2267763;61;1678;-84
2022/09/08 18:51:16;0.00;0.00;0.62;0.00;0.00;0.62;;;;;23.70;1.00;;;;;;2268039;61;1369;-86
2022/09/08 18:54:15;77415.00;0.26;134.57;0.00;0.00;0.62;;;;;23.50;1.00;;;;;;2267977;61;1150;-85
2022/09/08 18:56:48;0.00;0.00;0.62;0.00;0.00;0.62;;;;;23.40;1.00;;;;;;2267963;61;1106;-85
2022/09/08 18:59:44;58573.00;0.20;102.01;0.00;0.00;0.62;;;;;23.50;1.00;;;;;;2267904;61;1987;-85
2022/09/08 19:02:21;248454.00;0.83;429.29;0.00;0.00;0.62;;;;;23.60;1.00;;;;;;2267979;61;1514;-85